WetterOnline ( https://www.wetteronline.de )

Wetter aktuell Srnojedy

Aktuelles Wetter: Pardubice (230m)

6-stündlich | Neueste Meldungen
Ortszeit Temperatur Wetter
Fr, 21.02. 13:00 6.2° C wolkig
Fr, 21.02. 7:00 5.1° C leichter Regen
Fr, 21.02. 1:00 6.0° C bedeckt
Do, 20.02. 19:00 6.0° C bedeckt
Do, 20.02. 13:00 6.5° C bewölkt
Do, 20.02. 7:00 1.5° C fast wolkenlos
Do, 20.02. 1:00 3.1° C bewölkt
Mi, 19.02. 19:00 3.5° C wolkig
Ortszeit Temperatur Wetter
Fr, 21.02. 13:00 6.2° C wolkig
Fr, 21.02. 12:30 6° C bewölkt
Fr, 21.02. 12:00 5.6° C bewölkt
Fr, 21.02. 11:30 5° C bewölkt
Fr, 21.02. 11:00 5.1° C wolkig
Fr, 21.02. 10:39 5° C bewölkt
Fr, 21.02. 10:30 5° C bewölkt
Fr, 21.02. 10:00 4.7° C wolkig
Fr, 21.02. 9:30 4° C bewölkt
Ortszeit Relative Feuchte Sichtweite
Fr, 21.02. 13:00 55% 20 km
Fr, 21.02. 7:00 85% 15 km
Fr, 21.02. 1:00 70% 20 km
Do, 20.02. 19:00 74% 20 km
Do, 20.02. 13:00 64% 20 km
Do, 20.02. 7:00 75% 20 km
Do, 20.02. 1:00 78% 20 km
Mi, 19.02. 19:00 85% 20 km
Ortszeit Relative Feuchte Sichtweite
Fr, 21.02. 13:00 55% 20 km
Fr, 21.02. 12:30 56% >10 km
Fr, 21.02. 12:00 58% 20 km
Fr, 21.02. 11:30 60% >10 km
Fr, 21.02. 11:00 62% 20 km
Fr, 21.02. 10:39 60% >10 km
Fr, 21.02. 10:30 65% >10 km
Fr, 21.02. 10:00 66% 20 km
Fr, 21.02. 9:30 75% >10 km
Ortszeit Niederschlagsmenge Niederschlagsart
Fr, 21.02. 13:00 0.1 l/m2 in 6 Std. Regen
Fr, 21.02. 7:00 2 l/m2 in 12 Std. Regen
Fr, 21.02. 1:00 0.1 l/m2 in 6 Std. Regen
Do, 20.02. 19:00 0.0 l/m2 in 12 Std. -
Do, 20.02. 13:00 0.0 l/m2 in 6 Std. -
Do, 20.02. 7:00 0.0 l/m2 in 12 Std. -
Do, 20.02. 1:00 0.0 l/m2 in 6 Std. -
Mi, 19.02. 19:00 2 l/m2 in 12 Std. Regenschauer
Ortszeit Niederschlagsmenge Niederschlagsart
Fr, 21.02. 13:00 0.0 l/m2 in 1 Std. Regen
Fr, 21.02. 12:30 keine Meldung -
Fr, 21.02. 12:00 0.0 l/m2 in 1 Std. -
Fr, 21.02. 11:30 keine Meldung -
Fr, 21.02. 11:00 0.0 l/m2 in 1 Std. -
Fr, 21.02. 10:39 keine Meldung -
Fr, 21.02. 10:30 keine Meldung -
Fr, 21.02. 10:00 0.0 l/m2 in 1 Std. Regen
Fr, 21.02. 9:30 keine Meldung -
Ortszeit Stärke Spitze Richtung
km/h Bft. km/h Grad Sektor
Fr, 21.02. 13:00 32 5 61 280° W
Fr, 21.02. 7:00 29 5 47 290° W
Fr, 21.02. 1:00 14 3 - 170° S
Do, 20.02. 19:00 7 2 - 130° SO
Do, 20.02. 13:00 22 4 - 250° W
Do, 20.02. 7:00 11 2 - 250° W
Do, 20.02. 1:00 22 4 - 260° W
Mi, 19.02. 19:00 25 4 50 270° W
Ortszeit Stärke Spitze Richtung
km/h Bft. km/h Grad Sektor
Fr, 21.02. 13:00 32 5 61 280° W
Fr, 21.02. 12:30 30 5 - 290° W
Fr, 21.02. 12:00 29 5 50 290° W
Fr, 21.02. 11:30 28 4 - 290° W
Fr, 21.02. 11:00 32 5 54 290° W
Fr, 21.02. 10:39 37 5 54 280° W
Fr, 21.02. 10:30 35 5 - 280° W
Fr, 21.02. 10:00 32 5 61 280° W
Fr, 21.02. 9:30 30 5 - 270° W
Ortszeit Untergrenze Bedeckung Gattung
total tief tief mittel hoch
Fr, 21.02. 13:00 990 m 5/8 5/8 Cu - -
Fr, 21.02. 7:00 510 m 8/8 8/8 Sc - -
Fr, 21.02. 1:00 1500 m 8/8 8/8 Sc - -
Do, 20.02. 19:00 1020 m 8/8 8/8 Sc - -
Do, 20.02. 13:00 990 m 7/8 7/8 Sc - -
Do, 20.02. 7:00 1500 m 1/8 1/8 Sc - -
Do, 20.02. 1:00 1800 m 7/8 7/8 Sc - -
Mi, 19.02. 19:00 600 m 6/8 6/8 Sc - -
Ortszeit Bedeckungsgrad in Achtel und Wolkenuntergrenze
Fr, 21.02. 13:00 3(990m) 5(1500m)
Fr, 21.02. 12:30 3-4(990m) 5-7(1800m)
Fr, 21.02. 12:00 3(840m) 4(1110m) 6(1800m)
Fr, 21.02. 11:30 3-4(840m) 3-4(1290m) 7(1500m)
Fr, 21.02. 11:00 3(810m) 4(1200m) 6(1800m)
Fr, 21.02. 10:39 3-4(810m) 5-7(1500m)
Fr, 21.02. 10:30 1-2(720m) 5-7(1800m)
Fr, 21.02. 10:00 3(690m) 5(1500m) 5(2100m)
Fr, 21.02. 9:30 3-4(540m) 3-4(1200m) 7(1500m)
Ortszeit Luftdruck NN (hPa) Tendenz (hPa in 3 Std.)
Fr, 21.02. 13:00 1025 + 2,0
Fr, 21.02. 7:00 1017 + 3,3
Fr, 21.02. 1:00 1016 - 2,3
Do, 20.02. 19:00 1020 - 1,2
Do, 20.02. 13:00 1023 - 1,3
Do, 20.02. 7:00 1024 + 0,4
Do, 20.02. 1:00 1022 + 0,7
Mi, 19.02. 19:00 1020 + 3,8
Ortszeit Luftdruck NN (hPa) Tendenz (hPa in 3 Std.)
Fr, 21.02. 13:00 1025 + 2,0
Fr, 21.02. 12:30 1023 keine Meldung
Fr, 21.02. 12:00 1025 + 2,9
Fr, 21.02. 11:30 1023 keine Meldung
Fr, 21.02. 11:00 1024 + 4,6
Fr, 21.02. 10:39 1022 keine Meldung
Fr, 21.02. 10:30 1022 keine Meldung
Fr, 21.02. 10:00 1023 + 5,7
Fr, 21.02. 9:30 1021 keine Meldung
Ortszeit Schneehöhe (cm)
Fr, 21.02. 13:00 -
Fr, 21.02. 7:00 -
Fr, 21.02. 1:00 -
Do, 20.02. 19:00 -
Do, 20.02. 13:00 -
Do, 20.02. 7:00 -
Do, 20.02. 1:00 -
Mi, 19.02. 19:00 -
Ortszeit Schneehöhe (cm)
Fr, 21.02. 13:00 -
Fr, 21.02. 12:30 -
Fr, 21.02. 12:00 -
Fr, 21.02. 11:30 -
Fr, 21.02. 11:00 -
Fr, 21.02. 10:39 -
Fr, 21.02. 10:30 -
Fr, 21.02. 10:00 -
Fr, 21.02. 9:30 -
Link zu dieser Seite / Seite empfehlen

Das Wetter in ...